createdAt,value
2023-04-29T18:27:16.688Z,3.05
2023-04-29T18:29:45.943Z,3.78
2023-04-29T18:32:13.811Z,3.90
2023-04-29T18:34:42.255Z,5.15
2023-04-29T18:37:10.178Z,4.35
2023-04-29T18:39:38.045Z,5.90
2023-04-29T18:42:06.100Z,6.05
2023-04-29T18:44:35.362Z,6.97
2023-04-29T18:47:03.275Z,7.85
2023-04-29T18:49:31.191Z,8.45
2023-04-29T18:52:01.276Z,8.68
2023-04-29T18:54:29.176Z,9.68
2023-04-29T18:56:56.999Z,8.20
2023-04-29T18:59:24.889Z,10.07
2023-04-29T19:01:54.225Z,10.27
2023-04-29T19:04:22.231Z,8.98
2023-04-29T19:06:50.131Z,11.23
2023-04-29T19:09:18.012Z,11.90
2023-04-29T19:11:45.945Z,11.52
2023-04-29T19:14:13.804Z,11.02
2023-04-29T19:16:41.669Z,11.13
2023-04-29T19:19:10.930Z,12.75
2023-04-29T19:21:38.913Z,10.73
2023-04-29T19:24:06.882Z,12.82
2023-04-29T19:26:36.409Z,14.35
2023-04-29T19:29:05.355Z,13.02
2023-04-29T19:31:33.359Z,13.90
2023-04-29T19:34:01.622Z,14.00
2023-04-29T19:36:31.252Z,14.38
2023-04-29T19:38:59.131Z,13.73
2023-04-29T19:41:27.066Z,15.32
2023-04-29T19:43:54.935Z,15.60
2023-04-29T19:46:22.834Z,16.17
2023-04-29T19:48:50.792Z,13.88
2023-04-29T19:51:18.675Z,14.35
2023-04-29T19:53:48.092Z,12.52
2023-04-29T19:56:15.952Z,12.05
2023-04-29T19:58:43.786Z,12.27
2023-04-29T20:01:11.674Z,11.50
2023-04-29T20:03:39.795Z,13.27
2023-04-29T20:06:08.767Z,11.65
2023-04-29T20:08:37.063Z,13.80
2023-04-29T20:11:06.325Z,12.40
2023-04-29T20:13:34.183Z,13.48
2023-04-29T20:16:02.204Z,12.70
2023-04-29T20:18:30.179Z,14.02
2023-04-29T20:20:58.046Z,14.07
2023-04-29T20:23:26.256Z,17.90
2023-04-29T20:25:54.207Z,18.73
2023-04-29T20:28:23.411Z,20.60
2023-04-29T20:30:51.303Z,19.45
2023-04-29T20:33:19.253Z,18.92
2023-04-29T20:35:47.126Z,16.70
2023-04-29T20:38:15.015Z,16.80
2023-04-29T20:40:43.598Z,15.50
2023-04-29T20:43:11.499Z,16.65
2023-04-29T20:45:40.753Z,15.50
2023-04-29T20:48:08.705Z,16.77
2023-04-29T20:50:36.598Z,17.05
2023-04-29T20:53:04.489Z,15.60
2023-04-29T20:55:32.343Z,16.67
2023-04-29T20:58:00.457Z,15.68
2023-04-29T21:00:28.325Z,16.88
2023-04-29T21:02:57.573Z,15.32
2023-04-29T21:05:25.505Z,17.45
2023-04-29T21:07:53.386Z,15.52
2023-04-29T21:10:21.695Z,15.70
2023-04-29T21:12:49.592Z,15.85
2023-04-29T21:15:17.616Z,16.92
2023-04-29T21:17:45.952Z,17.08
2023-04-29T21:20:17.077Z,17.00
2023-04-29T21:22:45.047Z,16.33
2023-04-29T21:25:13.012Z,16.35
2023-04-29T21:27:40.838Z,16.67
2023-04-29T21:30:09.580Z,16.23
2023-04-29T21:32:37.652Z,16.13
2023-04-29T21:35:06.105Z,16.67
2023-04-29T21:37:35.316Z,18.88
2023-04-29T21:40:04.218Z,19.13
2023-04-29T21:42:32.818Z,19.83
2023-04-29T21:45:01.881Z,20.80
2023-04-29T21:47:30.500Z,22.10
2023-04-29T21:49:58.760Z,20.85
2023-04-29T21:52:26.666Z,23.38
2023-04-29T21:54:56.022Z,23.00
2023-04-29T21:57:35.562Z,23.90
2023-04-29T22:00:28.587Z,24.25
2023-04-29T22:02:56.592Z,25.67
2023-04-29T22:05:24.744Z,14.43
2023-04-29T22:07:52.663Z,26.90
2023-04-29T22:10:21.872Z,29.02
2023-04-29T22:12:49.796Z,26.80
2023-04-29T22:15:28.084Z,27.63
2023-04-29T22:17:57.266Z,28.17
2023-04-29T22:20:25.577Z,28.70
2023-04-29T22:22:53.493Z,27.60
2023-04-29T22:25:22.961Z,30.15
2023-04-29T22:27:51.848Z,31.58
2023-04-29T22:30:20.596Z,30.77
2023-04-29T22:32:48.584Z,31.92
2023-04-29T22:35:16.971Z,31.58
2023-04-29T22:37:44.807Z,33.45
2023-04-29T22:40:13.872Z,35.67
2023-04-29T22:42:43.161Z,33.85
2023-04-29T22:45:12.498Z,34.65
2023-04-29T22:47:40.593Z,36.40
2023-04-29T22:50:09.900Z,34.88
2023-04-29T22:52:37.872Z,33.72
2023-04-29T22:55:06.973Z,36.15
2023-04-29T22:57:34.857Z,36.35
2023-04-29T23:00:04.579Z,36.72
2023-04-29T23:02:32.494Z,38.03
2023-04-29T23:05:00.782Z,36.95
2023-04-29T23:07:28.767Z,37.42
2023-04-29T23:09:56.759Z,40.25
2023-04-29T23:12:25.336Z,39.35
2023-04-29T23:14:53.424Z,40.30
2023-04-29T23:17:22.727Z,40.95
2023-04-29T23:19:50.632Z,41.70
2023-04-29T23:22:18.509Z,47.92
